Time;durP1;ratioP1;P1;durP2;ratioP2;P2;SDS_P1;SDS_P2;PMS_P1;PMS_P2;Temp;Humidity;BMP_temperature;BMP_pressure;BME280_temperature;BME280_humidity;BME280_pressure;Samples;Min_cycle;Max_cycle;Signal;HPM_P1;HPM_P2
2022/12/15 00:40:03;;;;;;;56.70;36.30;;;;;;;0.16;83.10;96388.27;107792;1267;58901;-65
2022/12/15 00:42:34;;;;;;;51.70;35.30;;;;;;;0.13;83.73;96386.03;107752;1267;59267;-65
2022/12/15 00:45:05;;;;;;;55.00;37.40;;;;;;;0.14;83.51;96381.34;107834;1265;69934;-65
2022/12/15 00:47:36;;;;;;;54.10;35.70;;;;;;;0.15;83.54;96378.74;107812;1267;69705;-65
2022/12/15 01:21:18;;;;;;;51.60;37.50;;;;;;;0.13;83.64;96365.98;107770;1267;58962;-65
2022/12/15 01:23:54;;;;;;;51.30;32.70;;;;;;;0.14;83.58;96369.35;107788;1267;58887;-65
2022/12/15 01:26:24;;;;;;;50.90;33.70;;;;;;;0.16;83.33;96372.17;107833;1263;70768;-65
2022/12/15 01:28:54;;;;;;;;;;;;;;;0.13;83.68;96368.53;107738;1267;68543;-65
2022/12/15 01:31:24;;;;;;;56.30;36.40;;;;;;;0.10;83.65;96370.39;107743;1264;69282;-65
2022/12/15 01:33:55;;;;;;;54.10;38.90;;;;;;;0.08;83.72;96370.86;107748;1264;58900;-65
2022/12/15 01:36:26;;;;;;;57.00;37.60;;;;;;;0.07;83.83;96371.93;107725;1267;58921;-65
2022/12/15 01:38:56;;;;;;;50.50;33.80;;;;;;;0.08;84.41;96374.77;107679;1267;69819;-65
2022/12/15 01:41:28;;;;;;;50.00;32.60;;;;;;;0.09;83.54;96374.38;107710;1267;69557;-65
2022/12/15 01:44:21;;;;;;;47.00;34.20;;;;;;;0.11;83.32;96373.11;107777;1267;69234;-65
2022/12/15 01:46:55;;;;;;;48.30;35.00;;;;;;;0.13;84.02;96371.44;107783;1267;58972;-65
2022/12/15 01:49:30;;;;;;;48.90;33.00;;;;;;;0.17;84.14;96369.57;107777;1267;59293;-65
2022/12/15 01:52:07;;;;;;;40.90;31.00;;;;;;;0.19;83.34;96366.54;107716;1265;69798;-65
2022/12/15 01:54:49;;;;;;;46.90;33.20;;;;;;;0.21;83.89;96367.64;107753;1267;69280;-65
2022/12/15 01:57:27;;;;;;;51.80;38.30;;;;;;;0.22;84.27;96369.48;107790;1263;69668;-65
2022/12/15 02:00:00;;;;;;;51.00;36.20;;;;;;;0.22;84.43;96366.38;107651;1267;58908;-65
2022/12/15 02:02:32;;;;;;;53.40;33.70;;;;;;;0.24;83.42;96366.84;107703;1267;58910;-65
2022/12/15 02:05:09;;;;;;;44.80;31.30;;;;;;;0.24;83.14;96371.76;107676;1267;70030;-65
2022/12/15 02:07:38;;;;;;;53.80;36.90;;;;;;;0.25;84.60;96377.05;107713;1267;68709;-65
2022/12/15 02:10:10;;;;;;;53.70;36.50;;;;;;;0.24;85.12;96377.23;107729;1267;68496;-65
2022/12/15 02:12:48;;;;;;;54.90;36.70;;;;;;;0.25;84.79;96378.73;107735;1267;59260;-65
2022/12/15 02:15:29;;;;;;;50.70;34.80;;;;;;;0.26;83.86;96374.59;107658;1271;58866;-65
2022/12/15 02:18:32;;;;;;;48.10;31.90;;;;;;;0.27;83.41;96374.02;107721;1267;70484;-65
2022/12/15 02:21:10;;;;;;;54.40;36.90;;;;;;;0.27;82.83;96373.20;107757;1267;69243;-65
2022/12/15 02:23:49;;;;;;;44.30;31.90;;;;;;;0.26;83.83;96380.42;107780;1267;69227;-65
2022/12/15 02:26:55;;;;;;;52.50;34.50;;;;;;;0.27;85.32;96384.31;107695;1268;58915;-65
2022/12/15 02:29:47;;;;;;;46.10;34.50;;;;;;;0.25;85.91;96387.00;107744;1267;58896;-65
2022/12/15 02:32:30;;;;;;;52.70;36.00;;;;;;;0.23;86.16;96386.21;107774;1266;70571;-65
2022/12/15 02:35:08;;;;;;;50.60;35.70;;;;;;;0.22;86.53;96384.52;107822;1267;69239;-66
2022/12/15 02:37:40;;;;;;;51.30;33.70;;;;;;;0.24;84.77;96375.58;107700;1267;68347;-66
2022/12/15 02:40:10;;;;;;;48.70;34.70;;;;;;;0.24;84.12;96370.23;107641;1267;58916;-66
2022/12/15 02:42:48;;;;;;;47.90;30.50;;;;;;;0.25;83.90;96372.77;107774;1267;58913;-66
2022/12/15 02:45:23;;;;;;;47.40;33.90;;;;;;;0.27;84.78;96377.80;107787;1266;71218;-66
2022/12/15 02:48:22;;;;;;;49.80;32.90;;;;;;;0.28;86.23;96381.01;107696;1266;68465;-65
2022/12/15 02:51:26;;;;;;;57.20;36.60;;;;;;;0.30;87.23;96389.85;107656;1267;69254;-65
2022/12/15 02:54:18;;;;;;;49.40;33.70;;;;;;;0.30;87.47;96389.17;107605;1267;58923;-66
2022/12/15 02:57:20;;;;;;;44.10;29.90;;;;;;;0.30;86.67;96389.50;107642;1267;58844;-66
2022/12/15 03:00:00;;;;;;;50.00;36.00;;;;;;;0.31;85.06;96383.60;107627;1263;70050;-66
2022/12/15 03:02:33;;;;;;;49.60;32.80;;;;;;;0.30;84.40;96377.98;107890;1267;68153;-65
2022/12/15 03:05:04;;;;;;;58.00;39.50;;;;;;;0.31;84.40;96376.27;107758;1266;69368;-65
2022/12/15 03:07:34;;;;;;;52.60;35.60;;;;;;;0.29;84.40;96371.57;107749;1267;58968;-65
2022/12/15 03:10:06;;;;;;;46.30;33.20;;;;;;;0.27;84.34;96369.73;107672;1267;58979;-65
2022/12/15 03:12:35;;;;;;;52.10;37.10;;;;;;;0.26;85.35;96368.45;107642;1267;70618;-65
2022/12/15 03:15:05;;;;;;;51.30;33.70;;;;;;;0.26;86.27;96371.36;107670;1267;69656;-65
2022/12/15 03:17:35;;;;;;;42.20;28.90;;;;;;;0.26;86.67;96371.17;107657;1267;68318;-65
2022/12/15 03:20:07;;;;;;;51.60;35.50;;;;;;;0.25;87.26;96382.20;107775;1266;58970;-65
2022/12/15 03:22:37;;;;;;;47.60;32.70;;;;;;;0.20;88.01;96383.29;107716;1267;58942;-64
2022/12/15 03:25:07;;;;;;;48.10;33.90;;;;;;;0.19;87.82;96387.98;107671;1267;69680;-66
2022/12/15 03:27:37;;;;;;;48.30;32.70;;;;;;;0.19;87.17;96387.64;107757;1267;69227;-64
2022/12/15 03:30:08;;;;;;;42.00;30.50;;;;;;;0.20;87.37;96393.39;107670;1267;68837;-64
2022/12/15 03:32:38;;;;;;;50.90;34.60;;;;;;;0.22;87.33;96401.18;107699;1272;59053;-64
2022/12/15 03:35:08;;;;;;;52.90;33.60;;;;;;;0.23;86.24;96407.46;107669;1267;58965;-67
2022/12/15 03:37:39;;;;;;;46.90;33.30;;;;;;;0.20;85.57;96414.12;107732;1265;69807;-65
2022/12/15 03:40:10;;;;;;;41.40;29.40;;;;;;;0.10;87.37;96416.46;107625;1267;69528;-64
2022/12/15 03:42:49;;;;;;;38.30;26.30;;;;;;;0.06;87.21;96412.92;107716;1262;68491;-64
2022/12/15 03:45:23;;;;;;;37.20;28.60;;;;;;;0.03;87.63;96420.39;107649;1267;58963;-64
2022/12/15 03:47:53;;;;;;;36.80;27.20;;;;;;;0.03;87.56;96421.61;107732;1267;58873;-64
2022/12/15 03:50:26;;;;;;;36.30;25.90;;;;;;;0.04;87.70;96429.30;107805;1267;69635;-64
2022/12/15 03:52:58;;;;;;;39.70;27.70;;;;;;;0.05;88.58;96436.94;107749;1267;68577;-64
2022/12/15 03:55:28;;;;;;;43.00;28.90;;;;;;;0.06;88.95;96441.02;107593;1267;68553;-64
2022/12/15 03:57:59;;;;;;;37.40;28.40;;;;;;;0.07;89.00;96439.58;107828;1267;58916;-66
2022/12/15 04:00:29;;;;;;;37.60;27.20;;;;;;;0.09;89.01;96442.74;107753;1267;58986;-64
2022/12/15 04:02:58;;;;;;;38.60;26.80;;;;;;;0.12;88.36;96442.45;107629;1264;70569;-65
2022/12/15 04:05:30;;;;;;;32.70;24.90;;;;;;;0.14;87.65;96438.39;107637;1268;69412;-65
2022/12/15 04:08:01;;;;;;;47.60;33.70;;;;;;;0.17;87.87;96430.89;107641;1267;69721;-67
2022/12/15 04:10:32;;;;;;;51.60;33.40;;;;;;;0.20;87.14;96432.66;107720;1267;58830;-64
2022/12/15 04:13:06;;;;;;;50.00;34.30;;;;;;;0.20;86.63;96431.61;107696;1270;58898;-65
2022/12/15 04:15:38;;;;;;;60.10;38.80;;;;;;;0.20;85.88;96425.95;107677;1263;70586;-64
2022/12/15 04:18:09;;;;;;;63.50;41.70;;;;;;;0.18;85.90;96413.89;107642;1264;67867;-64
2022/12/15 04:20:39;;;;;;;54.60;36.00;;;;;;;0.15;85.94;96417.46;107732;1270;68526;-64
2022/12/15 04:23:08;;;;;;;50.00;34.20;;;;;;;0.13;86.50;96414.29;107718;1267;58933;-64
2022/12/15 05:33:09;;;;;;;48.60;32.90;;;;;;;0.25;88.30;96495.98;107836;1268;58885;-67
2022/12/15 05:35:38;;;;;;;48.70;32.80;;;;;;;0.24;87.98;96496.02;107819;1267;58894;-66
2022/12/15 05:38:07;;;;;;;43.10;28.60;;;;;;;0.23;88.75;96506.34;107776;1273;71305;-64
2022/12/15 05:40:36;;;;;;;40.50;27.70;;;;;;;0.24;89.12;96511.25;107800;1267;69820;-64
2022/12/15 05:43:05;;;;;;;41.40;29.20;;;;;;;0.27;89.09;96516.13;107759;1267;68523;-64
2022/12/15 05:45:34;;;;;;;34.90;24.90;;;;;;;0.28;89.48;96524.64;107771;1267;59244;-64
2022/12/15 05:48:04;;;;;;;41.80;28.90;;;;;;;0.31;90.44;96531.16;107819;1267;58840;-65
2022/12/15 05:50:33;;;;;;;45.20;31.60;;;;;;;0.36;91.24;96531.45;107833;1262;71173;-65
2022/12/15 05:53:02;;;;;;;43.20;30.80;;;;;;;0.36;90.36;96541.58;107800;1267;69880;-65
2022/12/15 05:55:31;;;;;;;40.40;29.20;;;;;;;0.40;91.22;96546.00;107804;1267;69832;-66
2022/12/15 05:58:00;;;;;;;35.70;27.60;;;;;;;0.42;90.30;96548.51;107773;1267;58923;-65
2022/12/15 06:00:29;;;;;;;34.80;24.70;;;;;;;0.45;90.50;96553.35;107848;1267;58859;-65
2022/12/15 06:02:58;;;;;;;30.60;22.40;;;;;;;0.47;89.34;96560.07;107673;1267;70782;-65
2022/12/15 06:05:28;;;;;;;28.00;18.80;;;;;;;0.50;88.84;96561.48;107732;1267;69657;-66
2022/12/15 06:07:59;;;;;;;25.60;17.20;;;;;;;0.52;88.65;96569.50;107792;1267;70052;-64
2022/12/15 06:10:27;;;;;;;34.10;24.70;;;;;;;0.52;88.59;96568.95;107751;1267;58925;-65
2022/12/15 06:12:56;;;;;;;43.50;31.80;;;;;;;0.51;88.17;96569.52;107761;1267;58874;-65
2022/12/15 06:15:25;;;;;;;48.70;33.40;;;;;;;0.48;87.94;96569.30;107796;1268;70547;-66
2022/12/15 06:17:54;;;;;;;47.40;33.20;;;;;;;0.44;87.79;96577.55;107791;1267;69034;-66
2022/12/15 06:20:23;;;;;;;49.80;34.20;;;;;;;0.40;87.70;96576.70;107751;1267;68280;-66
2022/12/15 06:22:53;;;;;;;43.60;32.50;;;;;;;0.37;87.70;96578.56;107800;1267;58977;-66
2022/12/15 06:25:21;;;;;;;48.60;35.30;;;;;;;0.36;88.95;96583.73;107777;1267;58906;-66
2022/12/15 06:27:50;;;;;;;47.00;34.20;;;;;;;0.36;89.91;96585.28;107812;1267;70932;-66
2022/12/15 06:30:25;;;;;;;48.40;33.30;;;;;;;0.37;90.62;96600.50;107798;1267;69431;-66
2022/12/15 06:32:54;;;;;;;37.50;28.70;;;;;;;0.39;90.58;96604.02;107782;1268;70238;-66
2022/12/15 06:35:23;;;;;;;42.90;32.00;;;;;;;0.41;91.08;96604.23;107804;1267;58934;-66
2022/12/15 06:37:52;;;;;;;39.10;28.20;;;;;;;0.43;90.63;96610.19;107686;1267;58915;-66
2022/12/15 06:40:21;;;;;;;44.20;30.90;;;;;;;0.42;90.09;96610.73;107797;1267;70086;-66
2022/12/15 06:42:50;;;;;;;44.00;32.10;;;;;;;0.41;90.31;96619.33;107645;1267;69734;-66
2022/12/15 06:45:18;;;;;;;47.40;32.70;;;;;;;0.42;90.40;96625.13;107736;1267;69262;-66
2022/12/15 06:47:48;;;;;;;47.80;34.20;;;;;;;0.43;90.50;96625.93;107821;1267;58996;-66
2022/12/15 06:50:16;;;;;;;42.60;31.00;;;;;;;0.45;89.55;96628.75;107698;1263;58867;-66
2022/12/15 06:52:45;;;;;;;39.80;28.40;;;;;;;0.48;89.32;96640.79;107779;1267;71343;-66
2022/12/15 06:55:14;;;;;;;35.40;26.00;;;;;;;0.53;89.51;96652.59;107712;1267;69812;-66
2022/12/15 06:57:46;;;;;;;35.80;23.90;;;;;;;0.57;90.01;96651.41;107632;1267;69761;-66
2022/12/15 07:00:15;;;;;;;28.30;18.70;;;;;;;0.59;89.60;96649.20;107762;1267;58967;-66
2022/12/15 07:02:44;;;;;;;45.30;31.60;;;;;;;0.62;89.05;96638.45;107694;1260;58931;-66
2022/12/15 07:05:18;;;;;;;66.70;42.90;;;;;;;0.63;88.67;96637.03;107672;1265;70794;-67
2022/12/15 07:07:47;;;;;;;73.30;50.20;;;;;;;0.61;88.56;96633.88;107664;1268;68362;-66
2022/12/15 07:10:16;;;;;;;70.30;50.60;;;;;;;0.60;88.42;96639.08;107689;1267;69904;-67
2022/12/15 07:12:45;;;;;;;66.10;43.90;;;;;;;0.58;88.98;96636.25;107636;1267;58955;-66
2022/12/15 07:15:15;;;;;;;57.70;39.50;;;;;;;0.59;88.90;96637.75;107782;1267;58850;-66
2022/12/15 07:17:44;;;;;;;52.50;36.20;;;;;;;0.58;89.63;96645.16;107710;1267;69601;-66
2022/12/15 07:20:13;;;;;;;53.00;36.50;;;;;;;0.60;89.63;96642.86;107722;1267;69164;-66
2022/12/15 07:22:41;;;;;;;55.30;38.00;;;;;;;0.66;89.07;96644.13;107768;1267;69877;-66
2022/12/15 07:25:10;;;;;;;49.20;35.00;;;;;;;0.71;88.74;96649.52;107796;1267;58894;-66
2022/12/15 07:27:40;;;;;;;49.50;34.80;;;;;;;0.80;88.45;96653.05;107774;1267;58914;-66
2022/12/15 07:30:09;;;;;;;52.80;33.70;;;;;;;0.92;88.51;96647.71;107630;1267;71146;-66
2022/12/15 07:32:38;;;;;;;48.30;33.00;;;;;;;1.04;87.69;96647.34;107741;1267;69014;-66
2022/12/15 07:35:08;;;;;;;49.80;34.50;;;;;;;1.16;87.18;96645.55;107752;1267;70143;-66
2022/12/15 07:37:37;;;;;;;43.20;31.20;;;;;;;1.32;86.46;96653.38;107780;1267;59027;-66
2022/12/15 07:40:07;;;;;;;39.00;28.00;;;;;;;1.53;85.66;96660.80;107795;1267;58855;-66
2022/12/15 07:42:36;;;;;;;43.30;30.70;;;;;;;1.74;85.11;96656.98;107801;1263;69729;-66
2022/12/15 07:45:06;;;;;;;40.50;29.60;;;;;;;1.90;84.68;96654.64;107780;1263;69062;-67
2022/12/15 07:47:34;;;;;;;43.40;31.70;;;;;;;2.04;84.55;96661.30;107811;1263;69242;-67
2022/12/15 07:50:04;;;;;;;44.30;31.40;;;;;;;2.11;83.11;96666.98;107788;1267;58978;-66
2022/12/15 07:52:32;;;;;;;43.20;31.00;;;;;;;2.17;81.90;96661.39;107776;1267;58956;-67
2022/12/15 07:55:01;;;;;;;44.60;31.70;;;;;;;2.25;82.75;96666.11;107756;1267;70563;-67
2022/12/15 07:57:31;;;;;;;43.20;31.30;;;;;;;2.28;82.49;96674.01;107799;1267;68288;-66
2022/12/15 08:00:04;;;;;;;43.90;32.70;;;;;;;2.31;82.44;96671.97;107796;1266;69299;-66
2022/12/15 08:02:40;;;;;;;46.80;33.20;;;;;;;2.29;80.77;96687.73;107755;1267;59486;-67
2022/12/15 08:05:09;;;;;;;44.50;31.10;;;;;;;2.29;80.67;96699.55;107835;1263;59047;-66
2022/12/15 08:07:38;;;;;;;44.80;31.80;;;;;;;2.34;81.14;96701.23;107762;1267;69583;-66
2022/12/15 08:10:08;;;;;;;42.10;29.20;;;;;;;2.36;80.86;96716.80;107720;1267;69185;-66
2022/12/15 08:12:37;;;;;;;38.40;28.30;;;;;;;2.40;80.88;96722.77;107825;1267;68482;-66
2022/12/15 08:15:06;;;;;;;40.30;28.80;;;;;;;2.41;81.21;96726.85;107729;1267;58965;-66
2022/12/15 08:17:35;;;;;;;40.50;28.60;;;;;;;2.43;81.64;96739.81;107681;1267;58845;-66
2022/12/15 08:20:04;;;;;;;38.70;28.00;;;;;;;2.43;81.50;96739.65;107669;1267;71371;-66
2022/12/15 08:22:37;;;;;;;41.30;28.60;;;;;;;2.40;81.72;96742.87;107789;1267;69656;-66
2022/12/15 08:25:06;;;;;;;51.60;32.90;;;;;;;2.34;82.18;96740.60;107762;1267;68437;-66
2022/12/15 08:27:35;;;;;;;56.60;36.50;;;;;;;2.32;82.38;96742.44;107686;1267;58964;-66
2022/12/15 08:30:04;;;;;;;53.20;34.90;;;;;;;2.29;83.06;96750.33;107664;1267;58938;-66
2022/12/15 08:32:33;;;;;;;59.30;39.00;;;;;;;2.22;83.11;96755.14;107657;1267;70103;-66
2022/12/15 08:35:02;;;;;;;52.20;34.80;;;;;;;2.23;83.14;96751.31;107686;1267;69966;-66
2022/12/15 08:37:31;;;;;;;51.50;34.80;;;;;;;2.26;83.05;96746.67;107769;1267;69729;-66
2022/12/15 08:39:59;;;;;;;54.40;35.70;;;;;;;2.31;83.02;96749.00;107708;1262;58898;-66
2022/12/15 08:42:34;;;;;;;48.60;33.50;;;;;;;2.35;82.87;96755.20;107698;1267;58882;-67
2022/12/15 08:45:04;;;;;;;48.90;34.20;;;;;;;2.36;82.70;96753.97;107637;1267;70385;-67
2022/12/15 08:47:33;;;;;;;44.80;33.20;;;;;;;2.40;82.68;96758.20;107757;1267;68445;-66
2022/12/15 08:50:02;;;;;;;45.50;29.60;;;;;;;2.43;82.64;96760.11;107696;1267;69332;-66
2022/12/15 08:52:30;;;;;;;41.70;28.20;;;;;;;2.47;82.57;96760.92;107633;1263;58974;-67
2022/12/15 08:54:59;;;;;;;44.20;32.40;;;;;;;2.52;82.94;96763.75;107747;1267;58896;-66
2022/12/15 08:57:28;;;;;;;44.00;30.00;;;;;;;2.59;82.98;96770.83;107768;1267;68749;-66
2022/12/15 08:59:57;;;;;;;45.20;32.70;;;;;;;2.67;82.64;96771.27;107919;1267;70131;-66
2022/12/15 09:02:26;;;;;;;41.00;27.90;;;;;;;2.73;82.18;96775.45;107724;1263;69701;-67
2022/12/15 09:04:56;;;;;;;45.00;30.50;;;;;;;2.80;81.97;96777.80;107719;1267;58953;-66
2022/12/15 09:07:24;;;;;;;36.20;23.80;;;;;;;2.85;81.46;96775.84;107816;1267;58917;-67
2022/12/15 09:09:54;;;;;;;30.30;23.60;;;;;;;2.92;81.51;96779.10;107802;1267;69614;-65
2022/12/15 09:12:23;;;;;;;35.00;26.00;;;;;;;2.97;81.12;96777.97;107762;1266;68034;-66
2022/12/15 09:14:51;;;;;;;35.70;25.10;;;;;;;3.04;81.28;96787.73;107789;1267;70000;-66
2022/12/15 09:17:20;;;;;;;30.40;21.70;;;;;;;3.10;80.64;96787.64;107758;1264;58981;-66
2022/12/15 09:19:49;;;;;;;35.20;23.70;;;;;;;3.13;79.20;96794.02;107793;1267;58897;-66
2022/12/15 09:22:18;;;;;;;30.90;20.80;;;;;;;3.16;79.27;96789.38;107852;1263;69817;-66
2022/12/15 09:24:47;;;;;;;27.70;20.00;;;;;;;3.18;78.04;96789.80;107782;1267;69246;-66
2022/12/15 09:27:16;;;;;;;30.00;21.80;;;;;;;3.22;78.44;96798.36;107815;1267;69293;-66
2022/12/15 09:29:45;;;;;;;24.00;16.50;;;;;;;3.25;78.17;96797.32;107830;1263;58898;-66
2022/12/15 09:32:14;;;;;;;27.30;19.70;;;;;;;3.27;77.50;96803.05;107833;1267;59267;-66
2022/12/15 09:34:43;;;;;;;26.10;18.40;;;;;;;3.28;76.62;96804.52;107809;1264;70575;-66
2022/12/15 09:37:12;;;;;;;24.80;17.50;;;;;;;3.34;77.75;96812.38;107794;1267;69016;-67
2022/12/15 09:39:41;;;;;;;25.90;18.10;;;;;;;3.36;77.26;96816.53;107780;1267;69938;-66
2022/12/15 09:42:28;;;;;;;23.10;17.60;;;;;;;3.42;77.01;96815.90;107674;1267;58909;-66
2022/12/15 09:45:04;;;;;;;24.50;16.00;;;;;;;3.44;76.74;96816.61;107819;1267;58918;-68
2022/12/15 09:48:07;;;;;;;25.40;17.00;;;;;;;3.52;77.01;96824.61;107832;1267;70386;-66
2022/12/15 09:50:38;;;;;;;26.10;18.30;;;;;;;3.54;75.91;96819.15;107648;1267;69043;-66
2022/12/15 09:53:13;;;;;;;28.50;20.90;;;;;;;3.60;76.38;96815.25;107751;1267;69775;-66
2022/12/15 09:56:18;;;;;;;31.20;22.70;;;;;;;3.69;76.03;96816.16;107646;1267;58951;-66
2022/12/15 09:58:49;;;;;;;25.80;19.40;;;;;;;3.76;76.22;96820.23;107694;1267;58938;-66
2022/12/15 10:01:37;;;;;;;20.50;16.10;;;;;;;3.84;77.45;96817.20;107765;1267;70894;-66
2022/12/15 10:04:32;;;;;;;23.50;16.90;;;;;;;3.87;76.96;96819.45;107676;1264;69167;-65
2022/12/15 10:07:33;;;;;;;26.10;19.20;;;;;;;3.90;77.55;96820.14;107762;1267;69130;-66
2022/12/15 10:10:20;;;;;;;27.10;19.10;;;;;;;3.84;77.26;96820.32;107714;1263;58955;-65
2022/12/15 10:12:53;;;;;;;25.10;17.40;;;;;;;3.84;77.70;96818.27;107795;1263;58868;-67
2022/12/15 10:15:44;;;;;;;29.20;22.10;;;;;;;3.90;77.02;96819.32;107772;1267;71543;-65
2022/12/15 10:18:25;;;;;;;25.70;19.50;;;;;;;3.92;76.50;96817.64;107684;1266;69673;-66
2022/12/15 10:21:00;;;;;;;26.90;20.00;;;;;;;3.99;76.68;96813.27;107727;1267;69315;-68
2022/12/15 10:23:35;;;;;;;38.50;29.50;;;;;;;4.10;77.04;96813.52;107763;1263;58964;-65
2022/12/15 10:26:24;;;;;;;40.90;30.20;;;;;;;4.15;75.42;96820.16;107693;1267;59312;-68
2022/12/15 10:29:28;;;;;;;44.50;30.30;;;;;;;4.21;75.98;96823.95;107680;1266;69584;-67
2022/12/15 10:32:04;;;;;;;36.00;28.00;;;;;;;4.18;74.77;96836.88;107715;1267;68629;-66
2022/12/15 10:34:36;;;;;;;36.10;26.90;;;;;;;4.25;75.44;96839.41;107777;1267;69725;-66
2022/12/15 10:37:12;;;;;;;34.40;26.10;;;;;;;4.34;75.02;96845.08;107695;1267;59008;-66
2022/12/15 10:39:44;;;;;;;32.20;24.20;;;;;;;4.42;74.47;96847.72;107698;1263;58895;-66
2022/12/15 10:42:25;;;;;;;37.30;26.80;;;;;;;4.53;75.12;96854.01;107730;1267;70411;-66
2022/12/15 10:44:56;;;;;;;31.60;24.40;;;;;;;4.57;75.06;96856.86;107751;1263;69025;-66
2022/12/15 10:47:28;;;;;;;35.40;26.50;;;;;;;4.54;74.30;96850.16;107712;1267;69913;-66
2022/12/15 10:50:21;;;;;;;31.20;23.30;;;;;;;4.59;74.97;96849.19;107717;1262;58969;-65
2022/12/15 10:53:38;;;;;;;27.10;19.60;;;;;;;4.58;74.88;96848.89;107765;1264;58865;-66
2022/12/15 10:56:08;;;;;;;28.20;19.50;;;;;;;4.57;74.96;96849.65;107708;1263;70431;-67
2022/12/15 10:58:50;;;;;;;28.90;19.00;;;;;;;4.63;75.35;96849.87;107709;1267;68337;-67
2022/12/15 11:01:31;;;;;;;27.50;19.90;;;;;;;4.64;75.13;96844.60;107752;1263;69772;-67
2022/12/15 11:04:00;;;;;;;28.70;20.90;;;;;;;4.71;75.28;96840.41;107659;1267;58951;-66
2022/12/15 11:06:32;;;;;;;23.20;17.10;;;;;;;4.70;74.20;96837.32;107754;1267;58882;-66
2022/12/15 11:09:20;;;;;;;28.00;20.40;;;;;;;4.69;74.07;96839.14;107750;1263;70543;-66
2022/12/15 11:14:50;;;;;;;29.40;21.80;;;;;;;4.61;74.95;96845.30;107697;1265;69071;-67
2022/12/15 11:17:21;;;;;;;29.80;22.60;;;;;;;4.70;74.64;96841.15;107690;1263;59032;-67
2022/12/15 11:20:20;;;;;;;28.80;21.90;;;;;;;4.57;73.99;96844.15;107667;1267;58925;-67
2022/12/15 11:22:59;;;;;;;29.40;22.50;;;;;;;4.67;74.38;96848.41;107704;1263;70397;-67
2022/12/15 11:25:37;;;;;;;30.70;22.70;;;;;;;4.63;74.60;96843.98;107731;1262;69787;-67
2022/12/15 11:28:18;;;;;;;30.30;22.00;;;;;;;4.65;74.43;96834.54;107709;1263;68499;-66
2022/12/15 11:31:02;;;;;;;27.50;20.80;;;;;;;4.75;73.91;96831.71;107686;1262;58910;-66
2022/12/15 11:33:31;;;;;;;29.90;22.80;;;;;;;4.87;74.54;96834.61;107811;1262;58898;-67
2022/12/15 11:36:16;;;;;;;26.60;20.80;;;;;;;5.04;73.97;96838.46;107824;1267;70421;-66
2022/12/15 11:39:30;;;;;;;28.30;21.10;;;;;;;5.30;73.17;96837.39;107775;1267;69952;-67
2022/12/15 11:42:04;;;;;;;25.70;19.20;;;;;;;5.65;72.65;96842.52;107542;1267;69275;-67
2022/12/15 11:44:59;;;;;;;24.00;18.00;;;;;;;6.04;71.12;96848.57;107679;1267;58908;-67
2022/12/15 11:47:47;;;;;;;24.60;17.80;;;;;;;6.54;68.98;96848.25;107737;1266;58958;-67
2022/12/15 11:50:43;;;;;;;22.60;17.60;;;;;;;7.45;65.79;96842.98;107706;1263;71184;-67
2022/12/15 11:53:40;;;;;;;20.90;16.10;;;;;;;8.94;63.14;96842.34;107778;1257;69171;-67
2022/12/15 11:56:31;;;;;;;18.20;14.70;;;;;;;10.13;60.12;96836.57;107783;1267;68446;-67
2022/12/15 11:59:18;;;;;;;18.00;14.70;;;;;;;11.08;56.04;96831.13;107930;1267;58908;-66
2022/12/15 12:02:24;;;;;;;18.90;15.30;;;;;;;11.81;52.73;96826.75;107769;1262;58902;-67
2022/12/15 12:05:41;;;;;;;20.00;16.40;;;;;;;12.68;49.77;96838.31;107808;1263;71267;-66
2022/12/15 12:08:15;;;;;;;19.50;16.90;;;;;;;12.55;48.93;96838.56;107434;1273;68461;-67
2022/12/15 12:10:59;;;;;;;19.70;16.70;;;;;;;12.57;47.82;96835.25;107381;1269;68374;-67
2022/12/15 12:13:47;;;;;;;15.90;14.30;;;;;;;13.45;47.49;96833.36;107721;1267;59019;-67
2022/12/15 12:16:44;;;;;;;15.50;13.10;;;;;;;14.34;45.39;96839.36;107801;1267;58822;-68
2022/12/15 12:19:26;;;;;;;13.80;12.30;;;;;;;15.51;47.93;96846.77;107844;1262;69815;-67
2022/12/15 12:22:02;;;;;;;12.10;10.80;;;;;;;16.24;46.44;96854.33;107788;1267;69670;-67
2022/12/15 12:24:39;;;;;;;13.40;12.00;;;;;;;15.89;42.30;96850.58;107792;1267;69090;-67
2022/12/15 12:27:38;;;;;;;13.60;11.50;;;;;;;15.43;42.10;96854.09;107380;1267;562541;-67
2022/12/15 12:30:14;;;;;;;11.60;10.10;;;;;;;15.73;43.84;96856.61;107784;1267;58953;-67
2022/12/15 12:33:01;;;;;;;10.10;8.80;;;;;;;16.17;44.31;96858.09;107716;1267;70663;-67
2022/12/15 12:35:39;;;;;;;11.80;10.30;;;;;;;15.99;41.29;96860.80;107816;1262;69154;-67
2022/12/15 12:38:10;;;;;;;10.70;8.40;;;;;;;16.34;41.63;96873.14;107854;1263;69248;-67
2022/12/15 12:40:39;;;;;;;9.40;8.40;;;;;;;16.04;40.75;96883.69;107783;1267;58968;-67
2022/12/15 12:43:11;;;;;;;9.90;8.90;;;;;;;15.94;41.47;96896.04;107781;1262;58954;-67
2022/12/15 12:45:53;;;;;;;11.20;9.30;;;;;;;16.81;40.98;96899.55;107796;1263;71441;-67
2022/12/15 12:48:33;;;;;;;9.10;8.10;;;;;;;16.88;39.78;96907.79;107728;1262;67472;-67
2022/12/15 12:51:26;;;;;;;8.90;7.40;;;;;;;16.70;40.37;96906.98;107816;1263;69259;-68
2022/12/15 12:53:57;;;;;;;7.80;6.70;;;;;;;17.04;39.83;96906.44;107824;1262;58944;-67
2022/12/15 12:56:36;;;;;;;9.40;7.80;;;;;;;16.28;39.15;96903.10;107805;1266;58943;-67
2022/12/15 12:59:28;;;;;;;7.10;6.00;;;;;;;16.29;39.60;96902.70;107813;1267;71239;-69
2022/12/15 13:02:29;;;;;;;7.40;6.30;;;;;;;16.53;39.97;96904.72;107823;1266;69681;-66
2022/12/15 13:05:22;;;;;;;7.10;5.50;;;;;;;16.55;40.25;96898.44;107836;1267;69874;-67
2022/12/15 13:08:15;;;;;;;7.40;5.10;;;;;;;16.96;39.82;96892.14;107785;1266;58931;-67
2022/12/15 13:10:46;;;;;;;6.80;5.80;;;;;;;17.12;39.79;96885.60;107815;1267;58907;-67
2022/12/15 13:13:27;;;;;;;6.30;5.00;;;;;;;17.02;39.62;96881.11;107708;1260;70549;-67
2022/12/15 13:16:11;;;;;;;6.00;4.80;;;;;;;17.12;39.80;96883.06;107784;1266;68225;-66
2022/12/15 13:19:02;;;;;;;5.60;4.90;;;;;;;16.97;39.93;96882.50;107819;1262;69784;-66
2022/12/15 13:21:43;;;;;;;8.10;6.80;;;;;;;16.47;39.20;96890.25;107755;1266;59024;-67
2022/12/15 13:24:45;;;;;;;8.40;6.90;;;;;;;16.18;40.42;96896.08;107724;1267;58900;-67
2022/12/15 13:27:18;;;;;;;7.70;5.90;;;;;;;16.02;40.37;96895.14;107798;1267;71250;-67
2022/12/15 13:30:14;;;;;;;7.20;5.90;;;;;;;16.06;39.78;96892.23;107794;1266;68337;-67
2022/12/15 13:32:52;;;;;;;7.40;6.50;;;;;;;16.00;40.16;96896.59;107845;1266;69732;-68
2022/12/15 13:35:33;;;;;;;7.80;6.20;;;;;;;15.80;39.94;96896.46;107830;1267;58905;-67
2022/12/15 13:38:03;;;;;;;10.10;7.40;;;;;;;15.64;40.49;96896.83;107814;1267;59304;-67
2022/12/15 13:40:49;;;;;;;;;;;;;;;15.35;40.74;96891.66;107821;1262;71016;-66
2022/12/15 13:43:25;;;;;;;8.60;7.30;;;;;;;15.08;41.56;96892.98;107704;1263;68317;-66
2022/12/15 13:46:02;;;;;;;8.00;6.30;;;;;;;15.53;41.92;96886.36;107665;1266;69185;-66
2022/12/15 13:48:37;;;;;;;7.60;6.20;;;;;;;15.55;40.94;96885.09;107648;1262;58929;-67
2022/12/15 13:51:41;;;;;;;7.50;5.70;;;;;;;15.67;41.86;96883.98;107783;1263;59290;-67
2022/12/15 13:54:18;;;;;;;7.90;5.80;;;;;;;15.38;41.34;96887.34;107808;1264;70390;-67
2022/12/15 13:57:11;;;;;;;9.00;6.80;;;;;;;14.68;42.17;96893.82;107728;1266;68243;-67
2022/12/15 13:59:49;;;;;;;12.10;8.60;;;;;;;13.99;43.37;96898.27;107645;1266;69764;-67
2022/12/15 14:02:26;;;;;;;12.80;10.60;;;;;;;13.97;43.77;96906.35;107683;1262;58925;-67
2022/12/15 14:05:10;;;;;;;12.30;9.80;;;;;;;13.89;44.05;96904.86;107721;1266;58968;-67
2022/12/15 14:07:49;;;;;;;11.40;9.20;;;;;;;13.54;44.85;96906.00;107772;1267;71194;-67
2022/12/15 14:10:42;;;;;;;11.00;8.40;;;;;;;12.98;45.93;96903.41;107646;1267;69017;-67
2022/12/15 14:13:18;;;;;;;16.40;12.90;;;;;;;12.48;46.94;96904.59;107649;1266;68568;-67
2022/12/15 14:16:02;;;;;;;13.20;9.10;;;;;;;12.28;47.46;96908.27;107749;1267;59227;-68
2022/12/15 14:18:37;;;;;;;11.70;9.20;;;;;;;11.52;48.82;96913.20;107754;1266;58959;-67